createdAt,value
2019-04-28T00:00:41.842Z,91790.09
2019-04-28T00:03:29.632Z,91789.47
2019-04-28T00:06:17.728Z,91783.31
2019-04-28T00:09:07.026Z,91785.82
2019-04-28T00:11:56.075Z,91780.02
2019-04-28T00:14:44.693Z,91786.22
2019-04-28T00:17:33.467Z,91789.57
2019-04-28T00:20:31.141Z,91785.08
2019-04-28T00:23:28.487Z,91781.48
2019-04-28T00:26:31.061Z,91780.06
2019-04-28T00:29:21.017Z,91779.59
2019-04-28T00:32:11.234Z,91777.86
2019-04-28T00:34:59.859Z,91773.44
2019-04-28T00:37:48.630Z,91774.70
2019-04-28T00:40:36.481Z,91770.91
2019-04-28T00:43:24.290Z,91766.02
2019-04-28T00:46:13.385Z,91767.19
2019-04-28T00:49:02.205Z,91768.05
2019-04-28T00:51:50.915Z,91775.53
2019-04-28T00:54:39.208Z,91764.00
2019-04-28T00:57:28.028Z,91769.27
2019-04-28T01:00:17.928Z,91768.78
2019-04-28T01:03:06.264Z,91766.73
2019-04-28T01:05:54.813Z,91763.83
2019-04-28T01:08:42.991Z,91771.32
2019-04-28T01:11:31.646Z,91775.66
2019-04-28T01:14:21.330Z,91765.10
2019-04-28T01:17:21.072Z,91771.80
2019-04-28T01:20:10.737Z,91767.86
2019-04-28T01:23:00.474Z,91767.78
2019-04-28T01:25:50.038Z,91758.48
2019-04-28T01:28:39.777Z,91765.73
2019-04-28T01:31:39.728Z,91758.38
2019-04-28T01:34:27.307Z,91771.80
2019-04-28T01:37:15.692Z,91760.38
2019-04-28T01:40:04.026Z,91764.31
2019-04-28T01:42:52.264Z,91761.95
2019-04-28T01:45:41.607Z,91760.45
2019-04-28T01:48:31.533Z,91762.42
2019-04-28T01:51:20.880Z,91766.17
2019-04-28T01:54:09.795Z,91760.77
2019-04-28T01:57:00.965Z,91763.53
2019-04-28T01:59:49.987Z,91764.55
2019-04-28T02:02:40.644Z,91772.25
2019-04-28T02:05:29.541Z,91773.62
2019-04-28T02:08:17.549Z,91780.48
2019-04-28T02:11:06.343Z,91770.27
2019-04-28T02:13:54.093Z,91775.52
2019-04-28T02:16:42.450Z,91768.78
2019-04-28T02:19:33.001Z,91770.69
2019-04-28T02:22:31.866Z,91769.19
2019-04-28T02:25:21.407Z,91769.02
2019-04-28T02:28:11.741Z,91757.74
2019-04-28T02:31:02.085Z,91752.59
2019-04-28T02:33:50.494Z,91759.39
2019-04-28T02:36:40.831Z,91764.00
2019-04-28T02:39:31.168Z,91757.32
2019-04-28T02:42:20.911Z,91756.94
2019-04-28T02:45:11.295Z,91754.52
2019-04-28T02:48:02.104Z,91759.00
2019-04-28T02:51:11.388Z,91762.91
2019-04-28T02:54:00.594Z,91757.38
2019-04-28T02:56:51.025Z,91759.34
2019-04-28T02:59:40.971Z,91758.77
2019-04-28T03:02:28.579Z,91758.77
2019-04-28T03:05:17.601Z,91752.68
2019-04-28T03:08:05.891Z,91762.64
2019-04-28T03:10:54.402Z,91762.17
2019-04-28T03:13:42.814Z,91764.52
2019-04-28T03:16:31.307Z,91757.56
2019-04-28T03:19:21.128Z,91758.29
2019-04-28T03:22:11.239Z,91767.33
2019-04-28T03:25:00.892Z,91764.22
2019-04-28T03:28:05.617Z,91762.36
2019-04-28T03:32:07.468Z,91772.23
2019-04-28T03:34:23.411Z,91777.66
2019-04-28T03:37:11.528Z,91786.83
2019-04-28T03:40:00.520Z,91789.33
2019-04-28T03:42:51.167Z,91795.28
2019-04-28T03:45:43.381Z,91804.10
2019-04-28T03:48:33.526Z,91794.83
2019-04-28T03:51:21.222Z,91798.34
2019-04-28T03:54:10.365Z,91802.52
2019-04-28T03:57:01.337Z,91801.84
2019-04-28T03:59:51.136Z,91817.70
2019-04-28T04:02:41.347Z,91815.68
2019-04-28T04:05:30.777Z,91823.30
2019-04-28T04:08:21.000Z,91818.89
2019-04-28T04:11:31.333Z,91832.39
2019-04-28T04:14:56.609Z,91819.35
2019-04-28T04:18:11.025Z,91827.22
2019-04-28T04:21:00.788Z,91828.76
2019-04-28T04:23:50.763Z,91821.95
2019-04-28T04:26:40.710Z,91830.97
2019-04-28T04:29:27.564Z,91843.40
2019-04-28T04:32:23.312Z,91840.34
2019-04-28T04:35:05.843Z,91838.28
2019-04-28T04:37:54.560Z,91837.52
2019-04-28T04:40:42.444Z,91855.50
2019-04-28T04:43:31.053Z,91845.34
2019-04-28T04:46:23.576Z,91848.30
2019-04-28T04:49:11.084Z,91851.00
2019-04-28T04:52:00.431Z,91852.83
2019-04-28T04:54:51.046Z,91854.29
2019-04-28T04:57:37.888Z,91860.53
2019-04-28T05:00:36.977Z,91858.80
2019-04-28T05:03:29.718Z,91857.39
2019-04-28T05:06:36.066Z,91857.62
2019-04-28T05:09:24.284Z,91850.85
2019-04-28T05:12:12.599Z,91853.25
2019-04-28T05:15:01.660Z,91855.51
2019-04-28T05:17:50.355Z,91856.58
2019-04-28T05:20:40.411Z,91860.13
2019-04-28T05:23:56.157Z,91860.05
2019-04-28T05:26:47.545Z,91861.05
2019-04-28T05:29:34.406Z,91860.02
2019-04-28T05:32:23.047Z,91856.95
2019-04-28T05:35:11.850Z,91850.80
2019-04-28T05:38:01.152Z,91850.25
2019-04-28T05:40:50.105Z,91855.97
2019-04-28T05:43:40.408Z,91854.67
2019-04-28T05:46:29.995Z,91854.00
2019-04-28T05:49:32.848Z,91859.79
2019-04-28T05:52:41.676Z,91850.16
2019-04-28T05:55:39.346Z,91846.20
2019-04-28T05:58:50.430Z,91852.51
2019-04-28T06:01:56.943Z,91854.84
2019-04-28T06:04:45.265Z,91844.34
2019-04-28T06:07:50.341Z,91849.26
2019-04-28T06:10:40.930Z,91848.04
2019-04-28T06:13:30.277Z,91854.40
2019-04-28T06:16:19.578Z,91854.62
2019-04-28T06:19:09.767Z,91850.47
2019-04-28T06:21:57.587Z,91846.66
2019-04-28T06:24:45.553Z,91849.33
2019-04-28T06:27:33.587Z,91847.70
2019-04-28T06:30:21.721Z,91842.23
2019-04-28T06:33:10.700Z,91842.19
2019-04-28T06:36:00.260Z,91843.66
2019-04-28T06:38:49.598Z,91832.54
2019-04-28T06:41:37.760Z,91834.59
2019-04-28T06:44:25.936Z,91834.08
2019-04-28T06:47:16.786Z,91829.30
2019-04-28T06:50:04.808Z,91834.98
2019-04-28T06:52:56.609Z,91835.30
2019-04-28T06:55:45.060Z,91832.28
2019-04-28T06:58:33.493Z,91832.50
2019-04-28T07:01:22.204Z,91830.16
2019-04-28T07:04:15.889Z,91830.42
2019-04-28T07:07:04.736Z,91833.05
2019-04-28T07:09:52.391Z,91826.10
2019-04-28T07:12:41.126Z,91826.25
2019-04-28T07:15:35.420Z,91830.22
2019-04-28T07:18:23.607Z,91837.70
2019-04-28T07:21:29.660Z,91839.75
2019-04-28T07:24:18.319Z,91842.38
2019-04-28T07:27:07.868Z,91839.70
2019-04-28T07:29:56.327Z,91833.00
2019-04-28T07:32:44.947Z,91829.30
2019-04-28T07:35:33.634Z,91836.19
2019-04-28T07:38:22.308Z,91839.16
2019-04-28T07:41:11.283Z,91834.28
2019-04-28T07:43:59.789Z,91838.36
2019-04-28T07:46:47.579Z,91836.69
2019-04-28T07:49:37.555Z,91829.47
2019-04-28T07:52:40.333Z,91836.81
2019-04-28T07:55:38.104Z,91831.28
2019-04-28T07:58:25.718Z,91831.55
2019-04-28T08:01:19.020Z,91824.36
2019-04-28T08:04:07.023Z,91829.02
2019-04-28T08:06:55.527Z,91829.70
2019-04-28T08:09:44.141Z,91823.69
2019-04-28T08:12:32.356Z,91821.99
2019-04-28T08:15:20.582Z,91826.06
2019-04-28T08:18:08.815Z,91812.50
2019-04-28T08:20:56.771Z,91816.66
2019-04-28T08:23:47.420Z,91826.79
2019-04-28T08:26:37.557Z,91829.59
2019-04-28T08:29:25.957Z,91811.18
2019-04-28T08:32:23.918Z,91809.63
2019-04-28T08:35:12.839Z,91808.22
2019-04-28T08:38:02.273Z,91810.69
2019-04-28T08:40:50.453Z,91805.09
2019-04-28T08:43:38.635Z,91806.05
2019-04-28T08:46:27.247Z,91804.30
2019-04-28T08:49:15.745Z,91807.92
2019-04-28T08:52:04.335Z,91805.42
2019-04-28T08:54:52.758Z,91821.75
2019-04-28T08:57:41.033Z,91812.49
2019-04-28T09:00:29.510Z,91808.77
2019-04-28T09:03:17.402Z,91807.51
2019-04-28T09:06:06.912Z,91802.36
2019-04-28T09:08:55.350Z,91804.91
2019-04-28T09:11:43.856Z,91803.29
2019-04-28T09:14:31.994Z,91801.83
2019-04-28T09:17:19.870Z,91798.20
2019-04-28T09:20:08.570Z,91796.57
2019-04-28T09:22:57.083Z,91786.56
2019-04-28T09:25:44.954Z,91793.25
2019-04-28T09:28:33.683Z,91792.52
2019-04-28T09:31:22.315Z,91798.25
2019-04-28T09:34:10.996Z,91792.25
2019-04-28T09:36:59.174Z,91793.53
2019-04-28T09:39:57.918Z,91789.64
2019-04-28T09:43:06.869Z,91785.27
2019-04-28T09:45:57.529Z,91784.75
2019-04-28T09:48:45.116Z,91785.30
2019-04-28T09:51:33.302Z,91781.66
2019-04-28T09:54:21.848Z,91775.05
2019-04-28T09:57:10.047Z,91780.33
2019-04-28T09:59:58.279Z,91770.11
2019-04-28T10:02:46.044Z,91772.33
2019-04-28T10:05:33.871Z,91763.91
2019-04-28T10:08:23.148Z,91767.42
2019-04-28T10:11:11.351Z,91762.47
2019-04-28T10:13:59.416Z,91762.37
2019-04-28T10:16:47.151Z,91766.38
2019-04-28T10:19:36.348Z,91771.29
2019-04-28T10:22:24.850Z,91765.22
2019-04-28T10:25:13.729Z,91754.05
2019-04-28T10:28:02.637Z,91754.81
2019-04-28T10:30:51.065Z,91747.70
2019-04-28T10:33:41.825Z,91750.06
2019-04-28T10:36:31.455Z,91755.27
2019-04-28T10:39:26.176Z,91748.07
2019-04-28T10:42:14.126Z,91754.22
2019-04-28T10:45:04.539Z,91742.43
2019-04-28T10:47:52.304Z,91745.48
2019-04-28T10:50:43.060Z,91746.03
2019-04-28T10:53:31.020Z,91734.73
2019-04-28T10:56:19.495Z,91727.52
2019-04-28T10:59:07.934Z,91730.53
2019-04-28T11:01:56.439Z,91735.13
2019-04-28T11:05:08.442Z,91722.14
2019-04-28T11:07:55.772Z,91726.55
2019-04-28T11:10:44.271Z,91720.25
2019-04-28T11:13:32.449Z,91719.88
2019-04-28T11:16:23.579Z,91727.52
2019-04-28T11:19:12.303Z,91727.73
2019-04-28T11:22:00.520Z,91726.41
2019-04-28T11:24:48.368Z,91728.25
2019-04-28T11:27:36.960Z,91717.04
2019-04-28T11:30:25.636Z,91714.43
2019-04-28T11:33:35.503Z,91716.02
2019-04-28T11:36:24.627Z,91717.60
2019-04-28T11:39:17.451Z,91712.78
2019-04-28T11:42:05.374Z,91713.42
2019-04-28T11:44:53.786Z,91699.52
2019-04-28T11:47:41.607Z,91697.71
2019-04-28T11:50:30.447Z,91697.45
2019-04-28T11:53:18.516Z,91695.04
2019-04-28T11:56:06.062Z,91700.51
2019-04-28T11:58:54.184Z,91698.82
2019-04-28T12:01:42.404Z,91691.83
2019-04-28T12:04:30.548Z,91695.09
2019-04-28T12:07:18.978Z,91695.45
2019-04-28T12:10:13.252Z,91686.50
2019-04-28T12:13:23.920Z,91690.23
2019-04-28T12:16:30.775Z,91677.63
2019-04-28T12:19:26.811Z,91680.84
2019-04-28T12:22:15.486Z,91678.87
2019-04-28T12:25:04.360Z,91673.64
2019-04-28T12:27:52.983Z,91677.34
2019-04-28T12:30:41.215Z,91677.55
2019-04-28T12:33:29.767Z,91672.25
2019-04-28T12:36:18.493Z,91675.55
2019-04-28T12:39:08.204Z,91671.95
2019-04-28T12:41:56.748Z,91662.87
2019-04-28T12:44:44.967Z,91663.60
2019-04-28T12:47:33.166Z,91651.02
2019-04-28T12:50:27.036Z,91650.09
2019-04-28T12:53:16.247Z,91643.66
2019-04-28T12:56:04.475Z,91640.56
2019-04-28T12:58:55.009Z,91639.24
2019-04-28T13:01:56.330Z,91634.94
2019-04-28T13:04:48.347Z,91635.28
2019-04-28T13:07:36.884Z,91637.34
2019-04-28T13:10:24.989Z,91631.30
2019-04-28T13:13:14.655Z,91637.41
2019-04-28T13:16:03.185Z,91623.61
2019-04-28T13:18:51.065Z,91628.34
2019-04-28T13:21:39.689Z,91627.45
2019-04-28T13:24:28.257Z,91626.90
2019-04-28T13:27:19.508Z,91620.42
2019-04-28T13:30:07.852Z,91615.13
2019-04-28T13:32:56.336Z,91620.80
2019-04-28T13:35:45.316Z,91616.55
2019-04-28T13:38:33.929Z,91613.15
2019-04-28T13:41:21.648Z,91612.23
2019-04-28T13:44:13.183Z,91619.83
2019-04-28T13:47:01.112Z,91617.34
2019-04-28T13:49:58.776Z,91613.64
2019-04-28T13:52:46.925Z,91618.70
2019-04-28T13:56:03.675Z,91607.52
2019-04-28T13:58:57.207Z,91603.84
2019-04-28T14:02:02.014Z,91603.08
2019-04-28T14:05:18.858Z,91604.46
2019-04-28T14:08:06.877Z,91602.03
2019-04-28T14:10:55.243Z,91598.25
2019-04-28T14:13:43.467Z,91605.17
2019-04-28T14:16:31.777Z,91597.27
2019-04-28T14:19:19.675Z,91607.84
2019-04-28T14:22:08.083Z,91604.31
2019-04-28T14:24:56.215Z,91600.86
2019-04-28T14:27:44.849Z,91596.08
2019-04-28T14:30:33.481Z,91590.64
2019-04-28T14:33:22.174Z,91594.88
2019-04-28T14:36:10.274Z,91601.97
2019-04-28T14:38:58.696Z,91596.05
2019-04-28T14:41:46.528Z,91597.30
2019-04-28T14:44:34.861Z,91595.28
2019-04-28T14:47:23.000Z,91602.91
2019-04-28T14:50:11.115Z,91597.37
2019-04-28T14:52:59.235Z,91594.00
2019-04-28T14:55:47.660Z,91585.76
2019-04-28T14:58:36.006Z,91596.34
2019-04-28T15:01:46.888Z,91586.84
2019-04-28T15:04:52.835Z,91592.52
2019-04-28T15:07:59.549Z,91596.55
2019-04-28T15:10:56.652Z,91594.94
2019-04-28T15:13:45.238Z,91600.86
2019-04-28T15:16:34.019Z,91593.19
2019-04-28T15:19:22.375Z,91595.55
2019-04-28T15:22:10.385Z,91589.77
2019-04-28T15:24:58.630Z,91592.75
2019-04-28T15:27:47.045Z,91588.52
2019-04-28T15:30:35.192Z,91590.45
2019-04-28T15:33:23.922Z,91591.12
2019-04-28T15:36:12.035Z,91592.09
2019-04-28T15:39:00.536Z,91588.41
2019-04-28T15:41:48.717Z,91587.78
2019-04-28T15:44:36.772Z,91590.14
2019-04-28T15:47:24.687Z,91582.73
2019-04-28T15:50:13.323Z,91586.35
2019-04-28T15:53:01.923Z,91590.95
2019-04-28T15:56:05.707Z,91598.25
2019-04-28T15:58:56.715Z,91591.48
2019-04-28T16:01:44.306Z,91593.20
2019-04-28T16:04:32.872Z,91589.02
2019-04-28T16:07:25.222Z,91596.73
2019-04-28T16:10:10.693Z,91594.34
2019-04-28T16:12:58.855Z,91596.98
2019-04-28T16:15:47.172Z,91605.53
2019-04-28T16:18:35.394Z,91607.15
2019-04-28T16:21:23.461Z,91606.11
2019-04-28T16:24:12.056Z,91601.91
2019-04-28T16:27:00.790Z,91608.47
2019-04-28T16:29:52.225Z,91607.44
2019-04-28T16:32:40.648Z,91607.10
2019-04-28T16:35:29.229Z,91602.64
2019-04-28T16:38:17.455Z,91608.66
2019-04-28T16:41:09.230Z,91609.83
2019-04-28T16:44:02.104Z,91615.42
2019-04-28T16:46:50.588Z,91614.90
2019-04-28T16:49:39.239Z,91610.87
2019-04-28T16:52:27.003Z,91613.02
2019-04-28T16:55:19.996Z,91615.98
2019-04-28T16:58:28.291Z,91620.11
2019-04-28T17:01:40.412Z,91627.45
2019-04-28T17:04:31.172Z,91633.53
2019-04-28T17:07:19.501Z,91630.86
2019-04-28T17:10:07.795Z,91638.39
2019-04-28T17:12:55.689Z,91635.66
2019-04-28T17:15:43.615Z,91643.52
2019-04-28T17:18:31.859Z,91641.36
2019-04-28T17:21:19.922Z,91641.20
2019-04-28T17:24:07.768Z,91649.88
2019-04-28T17:26:56.049Z,91652.63
2019-04-28T17:29:44.344Z,91658.33
2019-04-28T17:32:32.720Z,91655.76
2019-04-28T17:35:20.667Z,91659.73
2019-04-28T17:38:09.504Z,91666.14
2019-04-28T17:41:01.173Z,91665.11
2019-04-28T17:43:49.131Z,91667.14
2019-04-28T17:46:37.979Z,91661.20
2019-04-28T17:49:33.641Z,91662.94
2019-04-28T17:52:30.124Z,91666.91
2019-04-28T17:55:19.709Z,91666.78
2019-04-28T17:58:07.964Z,91672.70
2019-04-28T18:01:15.292Z,91679.45
2019-04-28T18:04:25.233Z,91686.86
2019-04-28T18:07:17.449Z,91697.94
2019-04-28T18:10:06.780Z,91698.52
2019-04-28T18:13:00.583Z,91695.71
2019-04-28T18:15:54.816Z,91702.39
2019-04-28T18:18:45.708Z,91714.13
2019-04-28T18:21:34.860Z,91714.70
2019-04-28T18:24:24.578Z,91715.13
2019-04-28T18:27:12.788Z,91714.48
2019-04-28T18:30:01.593Z,91724.03
2019-04-28T18:33:11.931Z,91720.55
2019-04-28T18:36:08.145Z,91723.30
2019-04-28T18:39:06.921Z,91725.70
2019-04-28T18:42:10.836Z,91738.59
2019-04-28T18:44:58.652Z,91739.82
2019-04-28T18:47:47.170Z,91741.75
2019-04-28T18:50:35.711Z,91751.75
2019-04-28T18:53:24.220Z,91753.59
2019-04-28T18:56:13.956Z,91752.84
2019-04-28T18:59:02.405Z,91746.09
2019-04-28T19:02:07.095Z,91750.45
2019-04-28T19:04:55.863Z,91754.27
2019-04-28T19:08:11.951Z,91750.84
2019-04-28T19:11:09.513Z,91752.31
2019-04-28T19:14:02.905Z,91750.00
2019-04-28T19:17:22.691Z,91750.01
2019-04-28T19:20:13.709Z,91743.41
2019-04-28T19:23:02.097Z,91747.61
2019-04-28T19:25:50.031Z,91743.63
2019-04-28T19:28:38.240Z,91746.17
2019-04-28T19:31:26.432Z,91746.55
2019-04-28T19:34:15.150Z,91753.01
2019-04-28T19:37:03.706Z,91752.55
2019-04-28T19:39:52.251Z,91753.14
2019-04-28T19:42:40.856Z,91758.46
2019-04-28T19:45:30.240Z,91758.06
2019-04-28T19:48:18.680Z,91759.52
2019-04-28T19:51:07.224Z,91760.05
2019-04-28T19:53:55.716Z,91756.72
2019-04-28T19:56:53.480Z,91753.26
2019-04-28T20:00:09.028Z,91756.89
2019-04-28T20:02:56.977Z,91753.87
2019-04-28T20:05:46.541Z,91757.33
2019-04-28T20:08:34.408Z,91763.73
2019-04-28T20:11:22.638Z,91772.98
2019-04-28T20:14:11.184Z,91780.89
2019-04-28T20:16:59.952Z,91769.25
2019-04-28T20:19:48.392Z,91772.86
2019-04-28T20:22:36.632Z,91772.13
2019-04-28T20:25:26.388Z,91772.68
2019-04-28T20:28:14.476Z,91767.40
2019-04-28T20:31:02.668Z,91761.56
2019-04-28T20:33:50.683Z,91769.20
2019-04-28T20:36:57.012Z,91770.56
2019-04-28T20:39:47.924Z,91767.82
2019-04-28T20:42:43.741Z,91769.42
2019-04-28T20:45:32.347Z,91785.69
2019-04-28T20:48:20.619Z,91777.89
2019-04-28T20:51:09.155Z,91781.97
2019-04-28T20:53:57.609Z,91778.98
2019-04-28T20:56:46.659Z,91783.86
2019-04-28T20:59:34.666Z,91775.45
2019-04-28T21:02:22.915Z,91772.35
2019-04-28T21:05:11.776Z,91769.39
2019-04-28T21:08:00.372Z,91768.80
2019-04-28T21:10:47.917Z,91762.73
2019-04-28T21:13:35.714Z,91761.86
2019-04-28T21:16:24.187Z,91759.48
2019-04-28T21:19:13.388Z,91755.34
2019-04-28T21:22:01.758Z,91756.02
2019-04-28T21:24:49.885Z,91768.92
2019-04-28T21:27:38.297Z,91768.09
2019-04-28T21:30:26.499Z,91768.20
2019-04-28T21:33:14.716Z,91772.68
2019-04-28T21:36:03.168Z,91773.08
2019-04-28T21:38:51.618Z,91765.75
2019-04-28T21:41:39.440Z,91760.77
2019-04-28T21:44:41.331Z,91766.52
2019-04-28T21:47:31.239Z,91766.12
2019-04-28T21:50:19.424Z,91775.70
2019-04-28T21:53:07.522Z,91770.41
2019-04-28T21:55:56.276Z,91769.98
2019-04-28T21:58:45.961Z,91774.83
2019-04-28T22:01:33.990Z,91777.02
2019-04-28T22:04:22.561Z,91776.11
2019-04-28T22:07:11.049Z,91770.53
2019-04-28T22:09:59.592Z,91773.66
2019-04-28T22:12:48.132Z,91784.53
2019-04-28T22:15:36.685Z,91787.91
2019-04-28T22:18:25.196Z,91788.38
2019-04-28T22:21:14.130Z,91792.67
2019-04-28T22:24:17.372Z,91792.66
2019-04-28T22:27:05.980Z,91792.92
2019-04-28T22:29:54.291Z,91791.20
2019-04-28T22:32:42.163Z,91792.16
2019-04-28T22:35:30.665Z,91792.98
2019-04-28T22:38:19.636Z,91793.16
2019-04-28T22:41:07.996Z,91788.20
2019-04-28T22:43:56.066Z,91788.85
2019-04-28T22:46:46.522Z,91791.55
2019-04-28T22:49:36.441Z,91790.38
2019-04-28T22:52:24.469Z,91787.39
2019-04-28T22:55:17.434Z,91791.70
2019-04-28T22:58:39.524Z,91791.48
2019-04-28T23:01:30.970Z,91789.72
2019-04-28T23:04:25.795Z,91790.12
2019-04-28T23:07:14.306Z,91788.44
2019-04-28T23:10:02.239Z,91786.78
2019-04-28T23:12:50.680Z,91787.77
2019-04-28T23:15:39.169Z,91784.33
2019-04-28T23:18:27.555Z,91784.92
2019-04-28T23:21:30.499Z,91783.70
2019-04-28T23:24:18.105Z,91783.83
2019-04-28T23:27:06.548Z,91778.05
2019-04-28T23:29:55.000Z,91778.28
2019-04-28T23:32:43.092Z,91768.09
2019-04-28T23:35:31.649Z,91769.48
2019-04-28T23:38:19.911Z,91772.98
2019-04-28T23:41:35.855Z,91759.68
2019-04-28T23:44:24.216Z,91763.63
2019-04-28T23:47:12.619Z,91770.31
2019-04-28T23:50:00.376Z,91769.67
2019-04-28T23:52:55.179Z,91755.95
2019-04-28T23:55:43.698Z,91772.46
2019-04-28T23:58:32.298Z,91764.82
